Time;durP1;ratioP1;P1;durP2;ratioP2;P2;SDS_P1;SDS_P2;PMS_P1;PMS_P2;Temp;Humidity;BMP_temperature;BMP_pressure;BME280_temperature;BME280_humidity;BME280_pressure;Samples;Min_cycle;Max_cycle;Signal;HPM_P1;HPM_P2
2022/02/26 00:01:43;;;;;;;;;0.00;0.00;;;;;;;;5162088;27;8775;-77
2022/02/26 00:04:10;;;;;;;;;0.00;0.00;;;;;;;;5143165;27;11400;-77
2022/02/26 00:06:36;;;;;;;;;0.00;0.00;;;;;;;;5161477;27;12315;-78
2022/02/26 00:09:03;;;;;;;;;0.00;0.00;;;;;;;;5161226;27;11380;-77
2022/02/26 00:11:33;;;;;;;;;0.00;0.00;;;;;;;;5162492;27;8843;-76
2022/02/26 00:13:58;;;;;;;;;0.00;0.00;;;;;;;;5161471;27;11491;-76
2022/02/26 00:16:23;;;;;;;;;0.00;0.00;;;;;;;;5161789;27;11533;-76
2022/02/26 00:18:48;;;;;;;;;0.00;0.00;;;;;;;;5142805;27;8814;-76
2022/02/26 00:21:14;;;;;;;;;0.00;0.00;;;;;;;;5161910;27;8799;-76
2022/02/26 00:23:39;;;;;;;;;0.00;0.00;;;;;;;;5161810;27;8783;-76
2022/02/26 00:26:05;;;;;;;;;0.00;0.00;;;;;;;;5161153;27;8854;-77
2022/02/26 00:28:30;;;;;;;;;0.00;0.00;;;;;;;;5161203;27;8779;-77
2022/02/26 00:30:55;;;;;;;;;0.00;0.00;;;;;;;;5161576;27;8807;-77
2022/02/26 00:33:21;;;;;;;;;0.00;0.00;;;;;;;;5161032;27;9069;-77
2022/02/26 00:35:46;;;;;;;;;0.00;0.00;;;;;;;;5161080;27;8952;-76
2022/02/26 00:38:11;;;;;;;;;0.00;0.00;;;;;;;;5160233;27;8841;-77
2022/02/26 00:40:37;;;;;;;;;0.00;0.00;;;;;;;;5160513;27;8870;-76
2022/02/26 00:43:02;;;;;;;;;0.00;0.00;;;;;;;;5161589;27;8784;-75
2022/02/26 00:45:28;;;;;;;;;0.00;0.00;;;;;;;;5142525;27;8811;-77
2022/02/26 00:47:53;;;;;;;;;0.00;0.00;;;;;;;;5161403;27;8818;-76
2022/02/26 00:50:18;;;;;;;;;0.00;0.00;;;;;;;;5161419;27;8810;-76
2022/02/26 00:52:43;;;;;;;;;0.00;0.00;;;;;;;;5142383;27;8934;-76
2022/02/26 00:55:09;;;;;;;;;0.00;0.00;;;;;;;;5160777;27;8834;-76
2022/02/26 00:57:35;;;;;;;;;0.00;0.00;;;;;;;;5141721;27;8795;-76
2022/02/26 01:00:00;;;;;;;;;0.00;0.00;;;;;;;;5160715;27;8811;-76
2022/02/26 01:02:25;;;;;;;;;0.00;0.00;;;;;;;;5160778;27;8899;-76
2022/02/26 01:04:51;;;;;;;;;0.00;0.00;;;;;;;;5160415;27;8806;-76
2022/02/26 01:07:18;;;;;;;;;0.00;0.00;;;;;;;;5160939;27;8795;-75
2022/02/26 01:09:44;;;;;;;;;0.00;0.00;;;;;;;;5160735;27;8783;-78
2022/02/26 01:12:10;;;;;;;;;0.00;0.00;;;;;;;;5161114;27;11373;-76
2022/02/26 01:14:36;;;;;;;;;0.00;0.00;;;;;;;;5160483;27;8924;-76
2022/02/26 01:17:02;;;;;;;;;0.00;0.00;;;;;;;;5160987;27;8787;-76
2022/02/26 01:19:27;;;;;;;;;0.00;0.00;;;;;;;;5159982;27;11401;-76
2022/02/26 01:21:53;;;;;;;;;0.00;0.00;;;;;;;;5160177;27;11453;-77
2022/02/26 01:24:18;;;;;;;;;0.00;0.00;;;;;;;;5160347;27;8822;-76
2022/02/26 01:26:44;;;;;;;;;0.00;0.00;;;;;;;;5161187;27;8919;-76
2022/02/26 01:29:09;;;;;;;;;0.00;0.00;;;;;;;;5161077;27;8795;-76
2022/02/26 01:31:34;;;;;;;;;0.00;0.00;;;;;;;;5161016;27;8839;-76
2022/02/26 01:34:00;;;;;;;;;0.00;0.00;;;;;;;;5161260;27;8825;-77
2022/02/26 01:36:26;;;;;;;;;0.00;0.00;;;;;;;;5141570;27;8906;-76
2022/02/26 01:38:51;;;;;;;;;0.00;0.00;;;;;;;;5141653;27;8800;-76
2022/02/26 01:41:17;;;;;;;;;0.00;0.00;;;;;;;;5159857;27;8780;-77
2022/02/26 01:43:42;;;;;;;;;0.00;0.00;;;;;;;;5160054;27;11461;-76
2022/02/26 01:46:10;;;;;;;;;0.00;0.00;;;;;;;;5160142;27;8780;-76
2022/02/26 01:48:35;;;;;;;;;0.00;0.00;;;;;;;;5160082;27;8867;-75
2022/02/26 01:51:02;;;;;;;;;0.00;0.00;;;;;;;;5160051;27;11510;-76
2022/02/26 01:53:27;;;;;;;;;0.00;0.00;;;;;;;;5159827;27;8915;-75
2022/02/26 01:55:53;;;;;;;;;0.00;0.00;;;;;;;;5160119;27;11505;-76
2022/02/26 01:58:18;;;;;;;;;0.00;0.00;;;;;;;;5160709;27;8776;-76
2022/02/26 02:00:43;;;;;;;;;0.00;0.00;;;;;;;;5160426;27;8938;-76
2022/02/26 02:03:09;;;;;;;;;1.00;0.00;;;;;;;;5160471;27;8910;-77
2022/02/26 02:05:34;;;;;;;;;0.00;0.00;;;;;;;;5141106;27;8808;-76
2022/02/26 02:07:59;;;;;;;;;0.00;0.00;;;;;;;;5159945;27;8764;-76
2022/02/26 02:10:25;;;;;;;;;0.00;0.00;;;;;;;;5160256;27;8756;-76
2022/02/26 02:12:51;;;;;;;;;0.00;0.00;;;;;;;;5159797;27;8791;-76
2022/02/26 02:15:30;;;;;;;;;0.00;0.00;;;;;;;;5159358;27;8884;-75
2022/02/26 02:17:55;;;;;;;;;0.00;0.00;;;;;;;;5159813;27;8752;-76
2022/02/26 02:20:20;;;;;;;;;0.00;0.00;;;;;;;;5159794;27;8796;-76
2022/02/26 02:22:45;;;;;;;;;0.00;0.00;;;;;;;;5159554;27;9436;-76
2022/02/26 02:25:14;;;;;;;;;0.00;0.00;;;;;;;;5159197;27;8796;-77
2022/02/26 02:27:39;;;;;;;;;0.00;0.00;;;;;;;;5160075;27;8776;-77
2022/02/26 02:30:05;;;;;;;;;0.00;0.00;;;;;;;;5159993;27;8818;-76
2022/02/26 02:32:30;;;;;;;;;0.00;0.00;;;;;;;;5159604;27;8918;-76
2022/02/26 02:34:55;;;;;;;;;0.00;0.00;;;;;;;;5159134;27;8799;-76
2022/02/26 02:37:20;;;;;;;;;0.00;0.00;;;;;;;;5159376;27;8815;-77
2022/02/26 02:39:46;;;;;;;;;0.00;0.00;;;;;;;;5159395;27;8810;-76
2022/02/26 02:42:11;;;;;;;;;0.00;0.00;;;;;;;;5158994;27;8815;-76
2022/02/26 02:44:37;;;;;;;;;0.00;0.00;;;;;;;;5159247;27;8799;-76
2022/02/26 02:47:02;;;;;;;;;1.00;0.00;;;;;;;;5140761;27;8807;-77
2022/02/26 02:49:27;;;;;;;;;0.00;0.00;;;;;;;;5159885;27;9554;-76
2022/02/26 02:51:53;;;;;;;;;0.00;0.00;;;;;;;;5159504;27;8799;-76
2022/02/26 02:54:18;;;;;;;;;0.00;0.00;;;;;;;;5159569;27;9488;-78
2022/02/26 02:56:43;;;;;;;;;0.00;0.00;;;;;;;;5159253;27;8780;-76
2022/02/26 02:59:09;;;;;;;;;0.00;0.00;;;;;;;;5140451;27;8792;-77
2022/02/26 03:01:34;;;;;;;;;0.00;0.00;;;;;;;;5161287;27;8780;-77
2022/02/26 03:04:00;;;;;;;;;0.00;0.00;;;;;;;;5162629;27;8888;-77
2022/02/26 03:06:26;;;;;;;;;0.00;0.00;;;;;;;;5162894;27;8776;-77
2022/02/26 03:08:51;;;;;;;;;0.00;0.00;;;;;;;;5162808;27;8760;-77
2022/02/26 03:11:17;;;;;;;;;0.00;0.00;;;;;;;;5162810;27;8777;-77
2022/02/26 03:13:45;;;;;;;;;0.00;0.00;;;;;;;;5163101;27;8859;-77
2022/02/26 03:16:10;;;;;;;;;0.00;0.00;;;;;;;;5162718;27;8883;-77
2022/02/26 03:18:36;;;;;;;;;0.00;0.00;;;;;;;;5162383;27;9370;-77
2022/02/26 03:21:01;;;;;;;;;0.00;0.00;;;;;;;;5162718;27;8812;-77
2022/02/26 03:23:26;;;;;;;;;0.00;0.00;;;;;;;;5163093;27;8768;-77
2022/02/26 03:25:52;;;;;;;;;0.00;0.00;;;;;;;;5162834;27;9550;-76
2022/02/26 03:28:17;;;;;;;;;0.00;0.00;;;;;;;;5162776;27;8903;-77
2022/02/26 03:30:43;;;;;;;;;0.00;0.00;;;;;;;;5162865;27;9002;-77
2022/02/26 03:33:08;;;;;;;;;0.00;0.00;;;;;;;;5162290;27;8776;-76
2022/02/26 03:35:33;;;;;;;;;0.00;0.00;;;;;;;;5162243;27;8950;-75
2022/02/26 03:38:01;;;;;;;;;0.00;0.00;;;;;;;;5162219;27;8764;-75
2022/02/26 03:40:26;;;;;;;;;0.00;0.00;;;;;;;;5162738;27;8845;-77
2022/02/26 03:42:52;;;;;;;;;0.00;0.00;;;;;;;;5163052;27;8757;-77
2022/02/26 03:45:17;;;;;;;;;0.00;0.00;;;;;;;;5162129;27;8835;-74
2022/02/26 03:47:42;;;;;;;;;0.00;0.00;;;;;;;;5158451;27;8802;-75
2022/02/26 03:50:09;;;;;;;;;0.00;0.00;;;;;;;;5152086;27;8831;-76
2022/02/26 03:52:34;;;;;;;;;0.00;0.00;;;;;;;;5150333;27;8802;-76
2022/02/26 03:55:02;;;;;;;;;0.67;0.00;;;;;;;;5149800;27;8822;-76
2022/02/26 03:57:28;;;;;;;;;0.00;0.00;;;;;;;;5143491;27;8782;-77
2022/02/26 03:59:54;;;;;;;;;0.00;0.00;;;;;;;;5150814;27;8820;-77
2022/02/26 04:02:19;;;;;;;;;0.00;0.00;;;;;;;;5150105;27;8780;-77
2022/02/26 04:04:44;;;;;;;;;0.00;0.00;;;;;;;;5146366;27;8937;-78
2022/02/26 04:07:09;;;;;;;;;0.00;0.00;;;;;;;;5150186;27;8770;-77
2022/02/26 04:09:35;;;;;;;;;0.00;0.00;;;;;;;;5150717;27;9481;-76
2022/02/26 04:12:01;;;;;;;;;0.00;0.00;;;;;;;;5149598;27;8813;-77
2022/02/26 04:14:27;;;;;;;;;0.00;0.00;;;;;;;;5149898;27;9560;-77
2022/02/26 04:16:54;;;;;;;;;0.00;0.00;;;;;;;;5151213;27;8806;-76
2022/02/26 04:19:20;;;;;;;;;0.00;0.00;;;;;;;;5151513;27;8770;-76
2022/02/26 04:21:45;;;;;;;;;0.00;0.00;;;;;;;;5148788;27;8768;-76
2022/02/26 04:24:10;;;;;;;;;0.00;0.00;;;;;;;;5131262;27;8809;-75
2022/02/26 04:26:36;;;;;;;;;1.00;0.00;;;;;;;;5150849;27;8861;-77
2022/02/26 04:29:01;;;;;;;;;0.00;0.00;;;;;;;;5151923;27;8900;-77
2022/02/26 04:31:27;;;;;;;;;0.00;0.00;;;;;;;;5149312;27;8798;-76
2022/02/26 04:33:52;;;;;;;;;1.00;0.00;;;;;;;;5149208;27;8874;-76
2022/02/26 04:36:18;;;;;;;;;0.00;0.00;;;;;;;;5149329;27;8898;-76
2022/02/26 04:38:43;;;;;;;;;0.00;0.00;;;;;;;;5148681;27;8775;-77
2022/02/26 04:41:08;;;;;;;;;0.00;0.00;;;;;;;;5132758;27;8775;-76
2022/02/26 04:43:35;;;;;;;;;0.00;0.00;;;;;;;;5149678;27;8786;-76
2022/02/26 04:46:00;;;;;;;;;1.00;0.00;;;;;;;;5151926;27;8784;-78
2022/02/26 04:48:25;;;;;;;;;0.00;0.00;;;;;;;;5160976;27;8756;-75
2022/02/26 04:50:51;;;;;;;;;0.00;0.00;;;;;;;;5161494;27;8883;-74
2022/02/26 04:53:16;;;;;;;;;0.00;0.00;;;;;;;;5160824;27;8872;-76
2022/02/26 04:55:44;;;;;;;;;0.00;0.00;;;;;;;;5157486;27;8838;-76
2022/02/26 04:58:10;;;;;;;;;1.00;0.00;;;;;;;;5151671;27;8788;-75
2022/02/26 05:00:35;;;;;;;;;0.00;0.00;;;;;;;;5150040;27;8782;-76
2022/02/26 05:03:01;;;;;;;;;0.00;0.00;;;;;;;;5149585;27;8800;-75
2022/02/26 05:05:26;;;;;;;;;0.00;0.00;;;;;;;;5151172;27;9567;-76
2022/02/26 05:07:51;;;;;;;;;0.00;0.00;;;;;;;;5149152;27;8802;-74
2022/02/26 05:10:17;;;;;;;;;0.00;0.00;;;;;;;;5149842;27;8811;-74
2022/02/26 05:12:42;;;;;;;;;0.00;0.00;;;;;;;;5133192;27;8817;-75
2022/02/26 05:15:08;;;;;;;;;0.00;0.00;;;;;;;;5151698;27;8972;-75
2022/02/26 05:17:34;;;;;;;;;0.00;0.00;;;;;;;;5150672;27;8760;-76
2022/02/26 05:19:59;;;;;;;;;0.00;0.00;;;;;;;;5149802;27;8837;-75
2022/02/26 05:22:25;;;;;;;;;0.00;0.00;;;;;;;;5149224;27;9642;-74
2022/02/26 05:24:50;;;;;;;;;0.00;0.00;;;;;;;;5148111;27;8790;-76
2022/02/26 05:27:15;;;;;;;;;0.00;0.00;;;;;;;;5150631;27;8776;-78
2022/02/26 05:29:41;;;;;;;;;0.00;0.00;;;;;;;;5131217;27;8824;-75
2022/02/26 05:32:06;;;;;;;;;0.00;0.00;;;;;;;;5148824;27;8788;-75
2022/02/26 05:34:32;;;;;;;;;0.00;0.00;;;;;;;;5151009;27;8843;-73
2022/02/26 05:36:57;;;;;;;;;1.00;0.00;;;;;;;;5150259;27;8956;-75
2022/02/26 05:39:23;;;;;;;;;0.00;0.00;;;;;;;;5149707;27;8823;-73
2022/02/26 05:41:48;;;;;;;;;0.00;0.00;;;;;;;;5149213;27;8794;-73
2022/02/26 05:44:13;;;;;;;;;0.00;0.00;;;;;;;;5148285;27;8782;-75
2022/02/26 05:46:38;;;;;;;;;0.00;0.00;;;;;;;;5151653;27;8782;-75
2022/02/26 05:49:04;;;;;;;;;0.00;0.00;;;;;;;;5149967;27;8827;-75
2022/02/26 05:51:29;;;;;;;;;1.00;0.00;;;;;;;;5147983;27;8919;-74
2022/02/26 05:53:54;;;;;;;;;0.00;0.00;;;;;;;;5150375;27;8874;-75
2022/02/26 05:56:20;;;;;;;;;0.00;0.00;;;;;;;;5148639;27;8875;-75
2022/02/26 05:58:45;;;;;;;;;0.00;0.00;;;;;;;;5149284;27;8917;-74
2022/02/26 06:01:10;;;;;;;;;1.33;0.00;;;;;;;;5150605;27;8889;-74
2022/02/26 06:03:35;;;;;;;;;0.33;0.00;;;;;;;;5148363;27;8798;-73
2022/02/26 06:06:03;;;;;;;;;1.00;0.00;;;;;;;;5150892;27;8830;-74
2022/02/26 06:08:28;;;;;;;;;0.00;0.00;;;;;;;;5149423;27;8869;-75
2022/02/26 06:10:54;;;;;;;;;0.00;0.00;;;;;;;;5149805;27;9003;-76
2022/02/26 06:13:19;;;;;;;;;1.00;1.00;;;;;;;;5147706;27;8778;-74
2022/02/26 06:15:44;;;;;;;;;0.00;0.00;;;;;;;;5151144;27;10198;-74
2022/02/26 06:18:13;;;;;;;;;0.00;0.00;;;;;;;;5160119;27;8788;-75
2022/02/26 06:20:38;;;;;;;;;0.33;0.33;;;;;;;;5159718;27;9629;-76
2022/02/26 06:23:03;;;;;;;;;0.33;0.33;;;;;;;;5160089;27;8776;-74
2022/02/26 06:25:29;;;;;;;;;1.00;0.00;;;;;;;;5140771;27;8946;-75
2022/02/26 06:27:54;;;;;;;;;3.00;0.67;;;;;;;;5159641;27;11999;-74
2022/02/26 06:30:21;;;;;;;;;1.33;0.00;;;;;;;;5159754;27;11279;-76
2022/02/26 06:32:47;;;;;;;;;0.00;0.00;;;;;;;;5159262;27;11971;-74
2022/02/26 06:35:12;;;;;;;;;0.00;0.00;;;;;;;;5159808;27;8927;-73
2022/02/26 06:37:38;;;;;;;;;0.00;0.00;;;;;;;;5162896;27;8934;-73
2022/02/26 06:40:03;;;;;;;;;0.00;0.00;;;;;;;;5162505;27;9501;-73
2022/02/26 06:42:29;;;;;;;;;0.67;0.00;;;;;;;;5163384;27;8772;-75
2022/02/26 06:44:55;;;;;;;;;0.00;0.00;;;;;;;;5163587;27;8781;-73
2022/02/26 06:47:20;;;;;;;;;0.00;0.00;;;;;;;;5163218;27;8788;-74
2022/02/26 06:49:46;;;;;;;;;0.00;0.00;;;;;;;;5163235;27;8776;-73
2022/02/26 06:52:11;;;;;;;;;2.00;0.00;;;;;;;;5162923;27;8812;-73
2022/02/26 06:54:36;;;;;;;;;0.00;0.00;;;;;;;;5162947;27;8803;-74
2022/02/26 06:57:02;;;;;;;;;0.00;0.00;;;;;;;;5163191;27;8914;-74
2022/02/26 06:59:27;;;;;;;;;2.00;1.00;;;;;;;;5144255;27;8780;-72
2022/02/26 07:01:53;;;;;;;;;0.00;0.00;;;;;;;;5162929;27;9982;-73
2022/02/26 07:04:18;;;;;;;;;1.00;1.00;;;;;;;;5162408;27;8888;-73
2022/02/26 07:06:44;;;;;;;;;0.00;0.00;;;;;;;;5162684;27;8808;-74
2022/02/26 07:09:14;;;;;;;;;2.33;1.00;;;;;;;;5162567;27;8868;-72
2022/02/26 07:11:43;;;;;;;;;0.00;0.00;;;;;;;;5161775;27;10710;-73
2022/02/26 07:14:08;;;;;;;;;0.00;0.00;;;;;;;;5161981;27;11547;-74
2022/02/26 07:16:34;;;;;;;;;0.00;0.00;;;;;;;;5154987;27;8790;-73
2022/02/26 07:19:00;;;;;;;;;0.00;0.00;;;;;;;;5161614;27;8796;-73
2022/02/26 07:21:26;;;;;;;;;0.00;0.00;;;;;;;;5162117;27;8760;-72
2022/02/26 07:23:53;;;;;;;;;0.00;0.00;;;;;;;;5143220;27;8807;-73
2022/02/26 07:26:18;;;;;;;;;1.00;0.00;;;;;;;;5161454;27;8834;-73
2022/02/26 07:28:44;;;;;;;;;0.00;0.00;;;;;;;;5161598;27;12206;-73
2022/02/26 07:31:09;;;;;;;;;0.00;0.00;;;;;;;;5153519;27;8832;-74
2022/02/26 07:33:34;;;;;;;;;1.00;1.00;;;;;;;;5150907;27;8866;-73
2022/02/26 07:35:59;;;;;;;;;0.00;0.00;;;;;;;;5150389;27;9574;-72
2022/02/26 07:38:25;;;;;;;;;1.00;0.00;;;;;;;;5149841;27;8790;-76
2022/02/26 07:40:50;;;;;;;;;0.00;0.00;;;;;;;;5151246;27;8824;-73
2022/02/26 07:43:15;;;;;;;;;0.00;0.00;;;;;;;;5151346;27;9594;-73
2022/02/26 07:45:41;;;;;;;;;0.00;0.00;;;;;;;;5141357;27;8798;-77
2022/02/26 07:48:06;;;;;;;;;1.00;0.00;;;;;;;;5140479;27;10030;-75
2022/02/26 07:50:31;;;;;;;;;0.00;0.00;;;;;;;;5143711;27;8837;-75
2022/02/26 07:52:57;;;;;;;;;1.33;0.33;;;;;;;;5143761;27;8887;-76
2022/02/26 07:55:22;;;;;;;;;1.00;0.00;;;;;;;;5149372;27;11477;-75
2022/02/26 07:57:47;;;;;;;;;1.67;0.33;;;;;;;;5150751;27;8830;-77
2022/02/26 08:00:13;;;;;;;;;1.00;1.00;;;;;;;;5134990;27;10633;-76
2022/02/26 08:02:38;;;;;;;;;0.33;0.33;;;;;;;;5152009;27;10411;-76
2022/02/26 08:05:04;;;;;;;;;0.33;0.33;;;;;;;;5135616;27;13046;-75
2022/02/26 08:07:29;;;;;;;;;0.00;0.00;;;;;;;;5150813;27;8755;-78
2022/02/26 08:09:55;;;;;;;;;0.75;0.00;;;;;;;;5149403;27;12168;-74
2022/02/26 08:12:20;;;;;;;;;1.00;0.25;;;;;;;;5151791;27;8838;-74
2022/02/26 08:14:45;;;;;;;;;0.75;0.75;;;;;;;;5149638;27;11535;-74
2022/02/26 08:17:13;;;;;;;;;0.00;0.00;;;;;;;;5150394;27;10782;-73
2022/02/26 08:19:39;;;;;;;;;0.00;0.00;;;;;;;;5150068;27;8854;-73
2022/02/26 08:22:04;;;;;;;;;0.00;0.00;;;;;;;;5148751;27;11540;-74
2022/02/26 08:24:31;;;;;;;;;1.00;0.00;;;;;;;;5149894;27;9091;-75
2022/02/26 08:26:56;;;;;;;;;0.00;0.00;;;;;;;;5147625;27;8801;-75
2022/02/26 08:29:21;;;;;;;;;0.50;0.00;;;;;;;;5148929;27;11416;-75
2022/02/26 08:31:46;;;;;;;;;1.00;0.00;;;;;;;;5149162;27;8782;-74
2022/02/26 08:34:12;;;;;;;;;0.75;0.00;;;;;;;;5147477;27;9030;-75
2022/02/26 08:36:37;;;;;;;;;1.00;0.00;;;;;;;;5149417;27;9027;-75
2022/02/26 08:39:03;;;;;;;;;0.75;0.75;;;;;;;;5148361;27;9098;-75
2022/02/26 08:41:28;;;;;;;;;0.00;0.00;;;;;;;;5131234;27;11687;-75
2022/02/26 08:43:54;;;;;;;;;0.00;0.00;;;;;;;;5147533;27;8849;-75
2022/02/26 08:46:19;;;;;;;;;0.00;0.00;;;;;;;;5131658;27;8884;-72
2022/02/26 08:48:44;;;;;;;;;0.00;0.00;;;;;;;;5161283;27;8890;-76
2022/02/26 08:51:10;;;;;;;;;0.00;0.00;;;;;;;;5161879;27;8788;-76
2022/02/26 08:53:35;;;;;;;;;0.00;0.00;;;;;;;;5161604;27;9487;-75
2022/02/26 08:56:00;;;;;;;;;0.00;0.00;;;;;;;;5161700;27;8946;-75
2022/02/26 08:58:26;;;;;;;;;0.00;0.00;;;;;;;;5160264;27;8799;-75
2022/02/26 09:00:51;;;;;;;;;0.75;0.75;;;;;;;;5161642;27;9469;-75
2022/02/26 09:03:17;;;;;;;;;0.00;0.00;;;;;;;;5163119;27;8764;-76
2022/02/26 09:05:43;;;;;;;;;1.00;0.00;;;;;;;;5160599;27;8822;-79
2022/02/26 09:08:09;;;;;;;;;0.00;0.00;;;;;;;;5160991;27;11380;-75
2022/02/26 09:10:34;;;;;;;;;0.00;0.00;;;;;;;;5160334;27;8873;-77
2022/02/26 09:13:00;;;;;;;;;0.00;0.00;;;;;;;;5132517;27;11567;-76
2022/02/26 09:17:20;;;;;;;;;1.00;0.00;;;;;;;;5089242;27;90404;-77
2022/02/26 09:19:45;;;;;;;;;1.25;0.00;;;;;;;;5154710;27;22654;-75
2022/02/26 09:22:10;;;;;;;;;0.00;0.00;;;;;;;;5156580;27;8871;-79
2022/02/26 09:24:36;;;;;;;;;0.00;0.00;;;;;;;;5156567;27;10134;-75
2022/02/26 09:27:01;;;;;;;;;1.25;0.50;;;;;;;;5156550;27;8796;-78
2022/02/26 09:29:26;;;;;;;;;2.00;0.00;;;;;;;;5149560;27;11530;-82
2022/02/26 09:31:53;;;;;;;;;0.00;0.00;;;;;;;;5135623;27;11609;-81
2022/02/26 09:34:18;;;;;;;;;0.00;0.00;;;;;;;;5133728;27;8967;-80
2022/02/26 09:36:45;;;;;;;;;0.25;0.00;;;;;;;;5115228;27;11470;-84
2022/02/26 09:39:10;;;;;;;;;1.00;1.00;;;;;;;;5093199;28;8880;-80
2022/02/26 09:41:37;;;;;;;;;0.00;0.00;;;;;;;;5041462;28;11493;-80
2022/02/26 09:44:04;;;;;;;;;0.00;0.00;;;;;;;;5096146;28;9542;-81
2022/02/26 09:46:29;;;;;;;;;0.00;0.00;;;;;;;;5114543;27;11474;-79
2022/02/26 09:48:54;;;;;;;;;0.00;0.00;;;;;;;;5115228;28;11459;-79
2022/02/26 09:51:20;;;;;;;;;0.00;0.00;;;;;;;;5113960;28;8886;-81
2022/02/26 09:53:46;;;;;;;;;0.00;0.00;;;;;;;;5130638;27;8832;-84
2022/02/26 09:56:11;;;;;;;;;0.00;0.00;;;;;;;;5114579;27;8821;-81
2022/02/26 09:58:37;;;;;;;;;3.00;1.50;;;;;;;;5112596;27;8805;-79
2022/02/26 10:01:03;;;;;;;;;0.00;0.00;;;;;;;;5092399;28;11297;-79
2022/02/26 10:03:33;;;;;;;;;0.00;0.00;;;;;;;;5095240;28;12419;-82
2022/02/26 10:06:09;;;;;;;;;0.00;0.00;;;;;;;;5095535;28;9991;-80
2022/02/26 10:08:37;;;;;;;;;0.67;0.67;;;;;;;;5094910;28;9761;-77
2022/02/26 10:11:03;;;;;;;;;0.00;0.00;;;;;;;;5094086;28;9344;-78
2022/02/26 10:13:34;;;;;;;;;0.00;0.00;;;;;;;;5094640;28;8791;-79
2022/02/26 10:15:59;;;;;;;;;0.00;0.00;;;;;;;;5094695;28;8814;-77
2022/02/26 10:18:24;;;;;;;;;0.00;0.00;;;;;;;;5099179;28;8911;-81
2022/02/26 10:20:55;;;;;;;;;0.00;0.00;;;;;;;;5115822;28;8978;-80
2022/02/26 10:23:22;;;;;;;;;0.00;0.00;;;;;;;;5113990;28;9541;-81
2022/02/26 10:25:48;;;;;;;;;0.00;0.00;;;;;;;;5114665;27;8825;-83
2022/02/26 10:28:14;;;;;;;;;0.00;0.00;;;;;;;;5104461;27;8884;-81
2022/02/26 10:30:41;;;;;;;;;0.00;0.00;;;;;;;;5086426;28;9497;-82
2022/02/26 10:33:09;;;;;;;;;0.00;0.00;;;;;;;;5081084;28;8791;-83
2022/02/26 10:35:45;;;;;;;;;0.00;0.00;;;;;;;;5079218;28;8843;-79
2022/02/26 10:38:27;;;;;;;;;0.00;0.00;;;;;;;;5081213;28;8784;-79
2022/02/26 10:41:03;;;;;;;;;0.00;0.00;;;;;;;;5079940;28;9026;-77
2022/02/26 10:43:40;;;;;;;;;0.00;0.00;;;;;;;;5079413;28;8803;-77
2022/02/26 10:46:32;;;;;;;;;0.00;0.00;;;;;;;;5079783;28;8812;-80
2022/02/26 10:49:02;;;;;;;;;0.00;0.00;;;;;;;;5084179;28;8922;-81
2022/02/26 10:51:28;;;;;;;;;0.00;0.00;;;;;;;;5088845;28;8792;-86
2022/02/26 10:53:54;;;;;;;;;0.00;0.00;;;;;;;;5098022;28;8813;-88
2022/02/26 10:56:29;;;;;;;;;0.00;0.00;;;;;;;;5096588;28;8950;-79
2022/02/26 10:58:54;;;;;;;;;0.00;0.00;;;;;;;;5091041;28;8812;-82
2022/02/26 11:01:19;;;;;;;;;0.00;0.00;;;;;;;;5088540;28;8826;-82
2022/02/26 11:03:45;;;;;;;;;0.00;0.00;;;;;;;;5079875;28;8885;-84
2022/02/26 11:06:11;;;;;;;;;0.00;0.00;;;;;;;;5080008;28;8804;-83
2022/02/26 11:08:38;;;;;;;;;1.00;0.00;;;;;;;;5080308;28;8796;-84
2022/02/26 11:11:05;;;;;;;;;0.00;0.00;;;;;;;;5095804;28;9774;-84
2022/02/26 11:13:33;;;;;;;;;0.00;0.00;;;;;;;;5086937;28;8810;-87
2022/02/26 11:15:59;;;;;;;;;0.00;0.00;;;;;;;;5088314;28;8815;-83
2022/02/26 11:18:30;;;;;;;;;0.00;0.00;;;;;;;;5090409;28;8778;-82
2022/02/26 11:20:55;;;;;;;;;0.00;0.00;;;;;;;;5088570;28;8815;-78
2022/02/26 11:23:23;;;;;;;;;0.00;0.00;;;;;;;;5087503;28;8846;-81
2022/02/26 11:25:50;;;;;;;;;0.00;0.00;;;;;;;;5088347;28;8825;-81
2022/02/26 11:28:16;;;;;;;;;1.00;1.00;;;;;;;;5089395;28;8815;-85
2022/02/26 11:30:51;;;;;;;;;0.00;0.00;;;;;;;;5083400;28;8823;-84
2022/02/26 11:33:16;;;;;;;;;2.00;0.67;;;;;;;;5088285;28;8869;-82
2022/02/26 11:35:52;;;;;;;;;0.00;0.00;;;;;;;;5088327;28;11300;-84
2022/02/26 11:38:18;;;;;;;;;1.25;0.00;;;;;;;;5084808;28;11395;-77
2022/02/26 11:40:47;;;;;;;;;1.00;1.00;;;;;;;;5087551;28;10090;-78
2022/02/26 11:43:31;;;;;;;;;0.00;0.00;;;;;;;;5087433;28;10308;-77
2022/02/26 11:45:57;;;;;;;;;1.00;0.00;;;;;;;;5083312;28;11384;-75
2022/02/26 11:48:22;;;;;;;;;1.25;1.00;;;;;;;;5088614;28;10497;-84
2022/02/26 11:50:50;;;;;;;;;0.00;0.00;;;;;;;;5098100;28;9993;-76
2022/02/26 11:53:20;;;;;;;;;0.00;0.00;;;;;;;;5098906;28;10332;-81
2022/02/26 11:55:49;;;;;;;;;0.00;0.00;;;;;;;;5098842;28;11085;-80
2022/02/26 11:58:23;;;;;;;;;1.00;1.00;;;;;;;;5099604;28;11058;-79
2022/02/26 12:00:58;;;;;;;;;1.00;1.00;;;;;;;;5098785;28;12128;-75
2022/02/26 12:03:29;;;;;;;;;0.50;0.50;;;;;;;;5093384;28;11391;-76
2022/02/26 12:06:16;;;;;;;;;2.00;2.00;;;;;;;;5079517;28;11857;-79
2022/02/26 12:08:47;;;;;;;;;0.00;0.00;;;;;;;;5075385;28;11437;-77
2022/02/26 12:11:31;;;;;;;;;0.50;0.50;;;;;;;;5089224;28;11425;-75
2022/02/26 12:13:57;;;;;;;;;1.75;1.75;;;;;;;;5088779;28;11404;-75
2022/02/26 12:16:22;;;;;;;;;0.00;0.00;;;;;;;;5088075;28;11438;-78
2022/02/26 12:18:53;;;;;;;;;0.75;0.00;;;;;;;;5087346;28;12815;-77
2022/02/26 12:21:19;;;;;;;;;2.50;1.00;;;;;;;;5086244;28;8930;-81
2022/02/26 12:24:01;;;;;;;;;0.00;0.00;;;;;;;;5093701;28;12218;-80
2022/02/26 12:26:41;;;;;;;;;1.00;1.00;;;;;;;;5085127;28;10619;-75
2022/02/26 12:29:07;;;;;;;;;0.25;0.25;;;;;;;;5085411;28;12164;-83
2022/02/26 12:31:39;;;;;;;;;0.00;0.00;;;;;;;;5087658;28;11481;-77
2022/02/26 12:34:09;;;;;;;;;0.75;0.75;;;;;;;;5084444;28;9014;-85
2022/02/26 12:36:56;;;;;;;;;1.00;1.00;;;;;;;;5085520;28;11470;-89
2022/02/26 12:39:28;;;;;;;;;1.00;1.00;;;;;;;;5084262;28;11574;-78
2022/02/26 12:41:53;;;;;;;;;1.00;1.00;;;;;;;;5085661;28;12321;-76
2022/02/26 12:44:19;;;;;;;;;1.75;1.00;;;;;;;;5087572;28;11478;-81
2022/02/26 12:46:46;;;;;;;;;0.25;0.25;;;;;;;;5087862;28;9557;-80
2022/02/26 12:49:13;;;;;;;;;2.00;1.00;;;;;;;;5086906;28;11581;-79
2022/02/26 12:51:41;;;;;;;;;0.75;0.75;;;;;;;;5084667;28;11779;-78
2022/02/26 12:54:08;;;;;;;;;1.50;0.25;;;;;;;;5093578;28;13940;-82
2022/02/26 12:56:35;;;;;;;;;2.50;1.00;;;;;;;;5086375;28;11515;-83
2022/02/26 12:59:07;;;;;;;;;1.00;1.00;;;;;;;;5082317;28;12160;-82
2022/02/26 13:01:36;;;;;;;;;1.00;1.00;;;;;;;;5085823;28;11728;-86
2022/02/26 13:04:03;;;;;;;;;1.00;1.00;;;;;;;;5091989;28;12188;-87
2022/02/26 13:06:28;;;;;;;;;1.00;1.00;;;;;;;;5086668;28;11598;-89
2022/02/26 13:08:53;;;;;;;;;1.00;1.00;;;;;;;;5085037;28;11576;-85
2022/02/26 13:11:22;;;;;;;;;1.50;1.00;;;;;;;;5094886;28;8821;-89
2022/02/26 13:13:47;;;;;;;;;0.25;0.00;;;;;;;;5079416;28;8799;-81
2022/02/26 13:16:12;;;;;;;;;0.00;0.00;;;;;;;;5094746;28;11514;-83
2022/02/26 13:18:38;;;;;;;;;0.00;0.00;;;;;;;;5098622;28;8847;-84
2022/02/26 13:21:03;;;;;;;;;1.00;0.00;;;;;;;;5086361;28;10045;-80
2022/02/26 13:23:29;;;;;;;;;0.00;0.00;;;;;;;;5095865;28;9028;-84
2022/02/26 13:25:55;;;;;;;;;1.00;0.00;;;;;;;;5088520;28;8843;-80
2022/02/26 13:28:24;;;;;;;;;0.00;0.00;;;;;;;;5085011;28;11444;-82
2022/02/26 13:30:50;;;;;;;;;0.00;0.00;;;;;;;;5088999;28;8770;-85
2022/02/26 13:33:18;;;;;;;;;0.00;0.00;;;;;;;;5092076;28;11643;-87
2022/02/26 13:35:43;;;;;;;;;2.00;0.00;;;;;;;;5093562;28;8824;-81
2022/02/26 13:38:09;;;;;;;;;1.50;1.00;;;;;;;;5084498;28;11465;-79
2022/02/26 13:40:34;;;;;;;;;1.00;1.00;;;;;;;;5081570;28;10435;-81
2022/02/26 13:43:00;;;;;;;;;0.00;0.00;;;;;;;;5093925;28;8924;-77
2022/02/26 13:45:31;;;;;;;;;0.00;0.00;;;;;;;;5096878;28;9849;-80
2022/02/26 13:47:56;;;;;;;;;0.00;0.00;;;;;;;;5097422;28;11427;-78
2022/02/26 13:50:22;;;;;;;;;0.00;0.00;;;;;;;;5097489;28;11487;-86
2022/02/26 13:52:49;;;;;;;;;0.00;0.00;;;;;;;;5091481;28;8918;-83
2022/02/26 13:55:16;;;;;;;;;0.00;0.00;;;;;;;;5085800;28;8822;-85
2022/02/26 13:57:42;;;;;;;;;0.00;0.00;;;;;;;;5088937;28;11500;-85
2022/02/26 14:00:08;;;;;;;;;0.00;0.00;;;;;;;;5084690;28;11698;-86
2022/02/26 14:02:34;;;;;;;;;0.00;0.00;;;;;;;;5089462;28;11621;-86
2022/02/26 14:05:01;;;;;;;;;0.00;0.00;;;;;;;;5100826;28;8904;-81
2022/02/26 14:07:36;;;;;;;;;0.00;0.00;;;;;;;;5100691;28;10867;-80
2022/02/26 14:10:03;;;;;;;;;0.00;0.00;;;;;;;;5100129;28;11466;-80
2022/02/26 14:12:29;;;;;;;;;0.00;0.00;;;;;;;;5101094;28;11447;-80
2022/02/26 14:14:58;;;;;;;;;0.00;0.00;;;;;;;;5099894;28;11454;-81
2022/02/26 14:17:26;;;;;;;;;1.00;0.00;;;;;;;;5100241;28;9647;-81
2022/02/26 14:19:53;;;;;;;;;0.00;0.00;;;;;;;;5090465;28;10896;-80
2022/02/26 14:22:18;;;;;;;;;0.00;0.00;;;;;;;;5088471;28;11577;-79
2022/02/26 14:24:45;;;;;;;;;0.00;0.00;;;;;;;;5087772;28;11455;-80
2022/02/26 14:27:15;;;;;;;;;0.75;0.00;;;;;;;;5089159;28;9629;-83
2022/02/26 14:29:40;;;;;;;;;0.25;0.00;;;;;;;;5091729;28;11572;-79
2022/02/26 14:32:09;;;;;;;;;0.00;0.00;;;;;;;;5084817;28;11586;-78
2022/02/26 14:34:35;;;;;;;;;0.00;0.00;;;;;;;;5078774;28;8896;-77
2022/02/26 14:37:01;;;;;;;;;0.00;0.00;;;;;;;;5079830;28;11503;-79
2022/02/26 14:39:29;;;;;;;;;0.00;0.00;;;;;;;;5092228;28;11481;-78
2022/02/26 14:41:55;;;;;;;;;0.50;0.00;;;;;;;;5090933;28;12161;-80
2022/02/26 14:44:24;;;;;;;;;0.25;0.00;;;;;;;;5088631;28;11491;-78
2022/02/26 14:46:52;;;;;;;;;0.00;0.00;;;;;;;;5086346;28;11490;-78
2022/02/26 14:49:19;;;;;;;;;0.00;0.00;;;;;;;;5032004;27;11504;-79
2022/02/26 14:51:46;;;;;;;;;0.00;0.00;;;;;;;;5095568;28;11475;-78